Aviation Digital Data Service (ADDS)

Output produced by METARs form (0344 UTC 23 November 2017)
found at http://www.aviationweather.gov/adds/metars/
 
UTAA 230300Z 31007KT 9000 FEW100 SCT230 10/07 Q1010 R88/CLRD70 NOSIG
TAF AMD UTAA 222251Z 2223/2324 26014KT 5000 SCT050CB BKN050 530009 
     TEMPO 2223/2304 30018G28KT 2000 BLDU VV010 
     TEMPO 2312/2318 30018G28KT 3000 BLDU 
     PROB40 
     TEMPO 2312/2318 -TSRA
       
UTAA 230300Z 31007KT 9000 FEW100 SCT230 10/07 Q1010 R88/CLRD70 NOSIG
TAF AMD UTAA 222251Z 2223/2324 26014KT 5000 SCT050CB BKN050 530009 
     TEMPO 2223/2304 30018G28KT 2000 BLDU VV010 
     TEMPO 2312/2318 30018G28KT 3000 BLDU 
     PROB40 
     TEMPO 2312/2318 -TSRA
       
UTAK 230300Z 01014KT 9999 -SHRA SCT026 OVC100 09/07 Q1010 R34L//19//60 NOSIG
TAF AMD UTAK 230140Z 2302/2324 35018G28KT 5000 BKN020 SCT020CB OVC100 530007 
     TEMPO 2302/2306 32016G26KT 2500 -RA BR BKN003 
     TEMPO 2306/2310 03018KT -SHRA BKN016 BKN100
       
UTAM 230300Z 21012KT CAVOK 15/M03 Q1009 NOSIG
TAF UTAM 222230Z 2300/2324 24014KT 5000 SCT050CB SCT050 BKN100 530007 
     TEMPO 2300/2306 20012KT 2000 HZ 
     BECMG 2312/2315 BKN050 
     TEMPO 2312/2318 VRB04KT 
     BECMG 2318/2321 30016KT 
     TEMPO 2318/2324 3000 -SHRA BKN030 
     PROB40 
     TEMPO 2318/2324 -TSSHRA
       
UTAT 230300Z 25006KT CAVOK 06/M05 Q1007 R26/CLRD70 NOSIG
TAF UTAT 222231Z 2300/2324 24016KT 6000 SCT030CB OVC050 530005 
     TEMPO 2300/2306 18016KT OVC020 
     TEMPO 2306/2312 30016KT
       
UTAV 230300Z 14010KT 9999 FEW033CB BKN033 12/M04 Q1010 NOSIG
TAF UTAV 222230Z 2300/2324 12014KT 5000 SCT050CB BKN100 530005 
     TEMPO 2302/2312 18018G28KT 2000 BLDU
       
UTDD 230330Z VRB01MPS 3800 FU NSC 05/M06 Q1016 R09/D NOSIG RMK QFE694/0925
TAF UTDD 230300Z 2304/2316 VRB02MPS 5000 BR FU SCT066 BKN100 
     TEMPO 2304/2307 2100 BR FU 
     TEMPO 2307/2316 27006MPS
       
UTDK 230330Z VRB02MPS 9999 NSC 10/M10 Q1016 R01/09//70 RMK QFE705/0940
TAF UTDK 230300Z 2304/2313 VRB02MPS 6000 SCT066 BKN100 
     TEMPO 2306/2313 21005MPS
       
UTDL 230330Z 05005MPS 6000 FEW140 OVC200 09/M06 Q1015 88CLRD70 NOSIG RMK QFE722/0963
TAF UTDL 230300Z 2304/2313 07008MPS 6000 SCT100 
     TEMPO 2306/2310 07007G12MPS
       
UTDT 230330Z 07001MPS 8000 FEW083 BKN220 06/M01 Q1015 35CLRD70 RMK QFE722/0963
TAF UTDT 230300Z 2304/2313 VRB02MPS 5000 BR SCT066 BKN100 
     TEMPO 2306/2313 20005MPS
       
TAF UTFA 221800Z 2219/2304 04008KT 1500 BR NSC 
     TEMPO 2219/2304 VRB02KT 0700 FG SCT003
       
UTFF 230330Z 15004KT 9999 NSC 05/M10 Q1016 R18/CLRD70
TAF UTFF 230300Z 2304/2313 33010KT 7000 NSC 
     TEMPO 2304/2313 VRB02KT 3000 BR
       
UTFN 230330Z VRB02KT 8000 NSC 03/M06 Q1016 R28/CLRD70 NOSIG
TAF UTFN 222300Z 2300/2324 33010KT 7000 NSC 
     TEMPO 2300/2306 VRB02KT 2100 BR
       
UTNN 230330Z 20004KT CAVOK 09/M05 Q1007 R15/CLRD60 NOSIG
TAF UTNN 222300Z 2300/2324 VRB04KT CAVOK 
     TEMPO 2306/2314 34014G24KT SCT040 BKN100
       
UTNU 230330Z 16004KT CAVOK 08/M04 Q1007 R31/CLRD70 NOSIG
TAF UTNU 222300Z 2300/2324 27012G22KT 8000 NSC 
     TEMPO 2300/2306 VRB04KT 3000 BR SCT040 BKN100
       
UTSA 230330Z 09010KT 6000 NSC 11/M08 Q1012 R07/CLRD70 NOSIG
TAF UTSA 222301Z 2300/2324 VRB03KT 7000 NSC 
     TEMPO 2300/2310 13012G22KT 3500 FU FEW050CB
       
UTSB 230330Z 09006KT CAVOK 09/M07 Q1011 R01/CLRD70 NOSIG
TAF UTSB 222300Z 2300/2324 VRB03KT 7000 NSC 
     TEMPO 2300/2310 14012G22KT FEW050CB
       
UTSK 230330Z 07008KT CAVOK 09/M10 Q1012 R16/CLRD70
TAF UTSK 230250Z 2304/2313 16010G20KT CAVOK 
     TEMPO 2304/2313 22012G22KT 3500 DU
       
UTSS 230330Z 02002KT 9999 NSC 06/M10 Q1014 R27/70D NOSIG
TAF UTSS 222300Z 2300/2324 14010G20KT 9999 NSC 
     TEMPO 2300/2309 24016G26KT 3500 DU
       
UTST 230330Z 00000KT 9999 FEW066CB 05/M01 Q1015 R88/CLRD70 NOSIG
TAF COR UTST 222300Z 2300/2324 04006G16KT 6000 SCT060CB BKN100 
     TEMPO 2300/2304 2000 BR 
     TEMPO 2306/2315 09008G18KT
       
UTTT 230330Z 07006KT CAVOK 05/M06 Q1014 R26R/CLRD70 NOSIG
TAF UTTT 222300Z 2300/2324 06010KT 7000 NSC 
     TEMPO 2300/2304 3000 BR FU
       
UTAT 230300Z 25006KT CAVOK 06/M05 Q1007 R26/CLRD70 NOSIG
TAF UTAT 222231Z 2300/2324 24016KT 6000 SCT030CB OVC050 530005 
     TEMPO 2300/2306 18016KT OVC020 
     TEMPO 2306/2312 30016KT
       
UTAM 230300Z 21012KT CAVOK 15/M03 Q1009 NOSIG
TAF UTAM 222230Z 2300/2324 24014KT 5000 SCT050CB SCT050 BKN100 530007 
     TEMPO 2300/2306 20012KT 2000 HZ 
     BECMG 2312/2315 BKN050 
     TEMPO 2312/2318 VRB04KT 
     BECMG 2318/2321 30016KT 
     TEMPO 2318/2324 3000 -SHRA BKN030 
     PROB40 
     TEMPO 2318/2324 -TSSHRA
       
UTAV 230300Z 14010KT 9999 FEW033CB BKN033 12/M04 Q1010 NOSIG
TAF UTAV 222230Z 2300/2324 12014KT 5000 SCT050CB BKN100 530005 
     TEMPO 2302/2312 18018G28KT 2000 BLDU
       
UTAK 230300Z 01014KT 9999 -SHRA SCT026 OVC100 09/07 Q1010 R34L//19//60 NOSIG
TAF AMD UTAK 230140Z 2302/2324 35018G28KT 5000 BKN020 SCT020CB OVC100 530007 
     TEMPO 2302/2306 32016G26KT 2500 -RA BR BKN003 
     TEMPO 2306/2310 03018KT -SHRA BKN016 BKN100